sensor_id;sensor_type;location;lat;lon;timestamp;temperature;humidity
4826;DHT22;2427;50.934;6.776;2023-10-09T00:00:53;16.40;99.90
4826;DHT22;2427;50.934;6.776;2023-10-09T00:03:29;16.40;99.90
4826;DHT22;2427;50.934;6.776;2023-10-09T00:05:55;16.30;99.90
4826;DHT22;2427;50.934;6.776;2023-10-09T00:08:21;16.40;99.90
4826;DHT22;2427;50.934;6.776;2023-10-09T00:10:48;16.40;99.90
4826;DHT22;2427;50.934;6.776;2023-10-09T00:13:21;16.40;99.90
4826;DHT22;2427;50.934;6.776;2023-10-09T00:15:53;16.30;99.90
4826;DHT22;2427;50.934;6.776;2023-10-09T00:18:23;16.30;99.90
4826;DHT22;2427;50.934;6.776;2023-10-09T00:20:54;16.20;99.90
4826;DHT22;2427;50.934;6.776;2023-10-09T00:23:20;16.20;99.90
4826;DHT22;2427;50.934;6.776;2023-10-09T00:25:51;16.10;99.90
4826;DHT22;2427;50.934;6.776;2023-10-09T00:28:36;16.10;1.00
4826;DHT22;2427;50.934;6.776;2023-10-09T00:31:04;16.10;1.00
4826;DHT22;2427;50.934;6.776;2023-10-09T00:33:32;16.00;1.00
4826;DHT22;2427;50.934;6.776;2023-10-09T00:36:04;16.00;1.00
4826;DHT22;2427;50.934;6.776;2023-10-09T00:38:37;15.90;1.00
4826;DHT22;2427;50.934;6.776;2023-10-09T00:41:16;15.90;1.00
4826;DHT22;2427;50.934;6.776;2023-10-09T00:43:46;15.80;1.00
4826;DHT22;2427;50.934;6.776;2023-10-09T00:46:16;15.80;1.00
4826;DHT22;2427;50.934;6.776;2023-10-09T00:48:47;15.70;1.00
4826;DHT22;2427;50.934;6.776;2023-10-09T00:51:14;15.60;1.00
4826;DHT22;2427;50.934;6.776;2023-10-09T00:53:48;15.50;1.00
4826;DHT22;2427;50.934;6.776;2023-10-09T00:56:18;15.40;1.00
4826;DHT22;2427;50.934;6.776;2023-10-09T00:58:54;15.30;1.00
4826;DHT22;2427;50.934;6.776;2023-10-09T01:11:43;14.80;99.90
4826;DHT22;2427;50.934;6.776;2023-10-09T01:14:24;14.70;99.90
4826;DHT22;2427;50.934;6.776;2023-10-09T01:16:50;14.70;99.90
4826;DHT22;2427;50.934;6.776;2023-10-09T01:19:19;14.60;99.90
4826;DHT22;2427;50.934;6.776;2023-10-09T01:21:49;14.60;99.90
4826;DHT22;2427;50.934;6.776;2023-10-09T01:24:15;14.60;99.90
4826;DHT22;2427;50.934;6.776;2023-10-09T01:26:42;14.70;1.00
4826;DHT22;2427;50.934;6.776;2023-10-09T01:29:20;14.70;1.00
4826;DHT22;2427;50.934;6.776;2023-10-09T01:31:52;14.70;1.00
4826;DHT22;2427;50.934;6.776;2023-10-09T01:34:24;14.80;1.00
4826;DHT22;2427;50.934;6.776;2023-10-09T01:37:00;14.80;1.00
4826;DHT22;2427;50.934;6.776;2023-10-09T01:39:25;14.80;1.00
4826;DHT22;2427;50.934;6.776;2023-10-09T01:41:56;14.90;1.00
4826;DHT22;2427;50.934;6.776;2023-10-09T01:44:28;14.90;1.00
4826;DHT22;2427;50.934;6.776;2023-10-09T01:47:03;15.00;1.00
4826;DHT22;2427;50.934;6.776;2023-10-09T01:49:49;15.20;99.90
4826;DHT22;2427;50.934;6.776;2023-10-09T01:52:15;15.30;99.90
4826;DHT22;2427;50.934;6.776;2023-10-09T01:54:42;15.30;99.90
4826;DHT22;2427;50.934;6.776;2023-10-09T01:57:13;15.40;99.90
4826;DHT22;2427;50.934;6.776;2023-10-09T01:59:39;15.40;99.90
4826;DHT22;2427;50.934;6.776;2023-10-09T02:02:12;15.40;99.90
4826;DHT22;2427;50.934;6.776;2023-10-09T02:05:04;15.50;99.90
4826;DHT22;2427;50.934;6.776;2023-10-09T02:07:49;15.50;76.50
4826;DHT22;2427;50.934;6.776;2023-10-09T02:10:20;15.60;55.70
4826;DHT22;2427;50.934;6.776;2023-10-09T02:12:59;15.60;57.40
4826;DHT22;2427;50.934;6.776;2023-10-09T02:15:29;15.60;44.70
4826;DHT22;2427;50.934;6.776;2023-10-09T02:18:12;15.60;51.70
4826;DHT22;2427;50.934;6.776;2023-10-09T02:20:51;15.60;37.00
4826;DHT22;2427;50.934;6.776;2023-10-09T02:23:31;15.70;1.00
4826;DHT22;2427;50.934;6.776;2023-10-09T02:26:16;15.70;1.00
4826;DHT22;2427;50.934;6.776;2023-10-09T02:28:51;15.80;1.00
4826;DHT22;2427;50.934;6.776;2023-10-09T02:31:36;15.80;1.00
4826;DHT22;2427;50.934;6.776;2023-10-09T02:34:06;15.80;1.00
4826;DHT22;2427;50.934;6.776;2023-10-09T02:36:33;15.80;1.00
4826;DHT22;2427;50.934;6.776;2023-10-09T02:39:11;15.90;1.00
4826;DHT22;2427;50.934;6.776;2023-10-09T02:41:53;16.00;1.00
4826;DHT22;2427;50.934;6.776;2023-10-09T02:44:23;16.10;1.00
4826;DHT22;2427;50.934;6.776;2023-10-09T02:46:54;16.10;1.00
4826;DHT22;2427;50.934;6.776;2023-10-09T02:49:23;16.10;1.00
4826;DHT22;2427;50.934;6.776;2023-10-09T02:51:49;16.20;1.00
4826;DHT22;2427;50.934;6.776;2023-10-09T02:54:19;16.20;1.00
4826;DHT22;2427;50.934;6.776;2023-10-09T02:56:48;16.20;1.00
4826;DHT22;2427;50.934;6.776;2023-10-09T02:59:20;16.20;1.00
4826;DHT22;2427;50.934;6.776;2023-10-09T03:01:48;16.30;1.00
4826;DHT22;2427;50.934;6.776;2023-10-09T03:04:13;16.20;1.00
4826;DHT22;2427;50.934;6.776;2023-10-09T03:06:41;16.20;1.00
4826;DHT22;2427;50.934;6.776;2023-10-09T03:09:17;16.20;1.00
4826;DHT22;2427;50.934;6.776;2023-10-09T03:11:47;16.20;1.00
4826;DHT22;2427;50.934;6.776;2023-10-09T03:14:14;16.20;1.00
4826;DHT22;2427;50.934;6.776;2023-10-09T03:16:42;16.10;1.00
4826;DHT22;2427;50.934;6.776;2023-10-09T03:19:08;16.00;1.00
4826;DHT22;2427;50.934;6.776;2023-10-09T03:21:36;16.00;1.00
4826;DHT22;2427;50.934;6.776;2023-10-09T03:24:02;15.90;1.00
4826;DHT22;2427;50.934;6.776;2023-10-09T03:26:30;15.80;4.90
4826;DHT22;2427;50.934;6.776;2023-10-09T03:28:56;15.80;32.40
4826;DHT22;2427;50.934;6.776;2023-10-09T03:31:27;15.70;38.50
4826;DHT22;2427;50.934;6.776;2023-10-09T03:33:53;15.60;66.60
4826;DHT22;2427;50.934;6.776;2023-10-09T03:36:18;15.50;96.10
4826;DHT22;2427;50.934;6.776;2023-10-09T03:38:44;15.50;99.90
4826;DHT22;2427;50.934;6.776;2023-10-09T03:41:09;15.40;99.90
4826;DHT22;2427;50.934;6.776;2023-10-09T03:43:38;15.30;99.90
4826;DHT22;2427;50.934;6.776;2023-10-09T03:46:10;15.30;99.90
4826;DHT22;2427;50.934;6.776;2023-10-09T03:48:52;15.30;99.90
4826;DHT22;2427;50.934;6.776;2023-10-09T03:51:21;15.30;99.90
4826;DHT22;2427;50.934;6.776;2023-10-09T03:53:47;15.30;99.90
4826;DHT22;2427;50.934;6.776;2023-10-09T03:56:13;15.30;99.90
4826;DHT22;2427;50.934;6.776;2023-10-09T03:58:43;15.20;99.90
4826;DHT22;2427;50.934;6.776;2023-10-09T04:01:13;15.20;99.90
4826;DHT22;2427;50.934;6.776;2023-10-09T04:03:48;15.20;99.90
4826;DHT22;2427;50.934;6.776;2023-10-09T04:06:13;15.20;99.90
4826;DHT22;2427;50.934;6.776;2023-10-09T04:08:43;15.30;99.90
4826;DHT22;2427;50.934;6.776;2023-10-09T04:11:13;15.30;99.90
4826;DHT22;2427;50.934;6.776;2023-10-09T04:13:45;15.40;99.90
4826;DHT22;2427;50.934;6.776;2023-10-09T04:16:12;15.40;99.90
4826;DHT22;2427;50.934;6.776;2023-10-09T04:19:04;15.50;99.90
4826;DHT22;2427;50.934;6.776;2023-10-09T04:21:37;15.60;99.90
4826;DHT22;2427;50.934;6.776;2023-10-09T04:24:03;15.80;99.20
4826;DHT22;2427;50.934;6.776;2023-10-09T04:26:39;15.90;1.00
4826;DHT22;2427;50.934;6.776;2023-10-09T04:29:10;16.00;1.00
4826;DHT22;2427;50.934;6.776;2023-10-09T04:31:46;16.10;1.00
4826;DHT22;2427;50.934;6.776;2023-10-09T04:34:20;16.20;1.00
4826;DHT22;2427;50.934;6.776;2023-10-09T04:37:00;16.20;1.00
4826;DHT22;2427;50.934;6.776;2023-10-09T04:39:29;16.20;1.00
4826;DHT22;2427;50.934;6.776;2023-10-09T04:41:58;16.10;1.00
4826;DHT22;2427;50.934;6.776;2023-10-09T04:44:43;16.20;99.90
4826;DHT22;2427;50.934;6.776;2023-10-09T04:47:28;16.30;99.90
4826;DHT22;2427;50.934;6.776;2023-10-09T04:50:09;16.30;99.90
4826;DHT22;2427;50.934;6.776;2023-10-09T04:52:36;16.40;99.90
4826;DHT22;2427;50.934;6.776;2023-10-09T04:55:02;16.40;64.40
4826;DHT22;2427;50.934;6.776;2023-10-09T04:57:45;16.30;24.80
4826;DHT22;2427;50.934;6.776;2023-10-09T05:00:26;16.40;15.10
4826;DHT22;2427;50.934;6.776;2023-10-09T05:03:02;16.40;6.40
4826;DHT22;2427;50.934;6.776;2023-10-09T05:05:36;16.30;6.70
4826;DHT22;2427;50.934;6.776;2023-10-09T05:08:15;16.30;90.90
4826;DHT22;2427;50.934;6.776;2023-10-09T05:10:47;16.30;80.10
4826;DHT22;2427;50.934;6.776;2023-10-09T05:13:36;16.30;13.80
4826;DHT22;2427;50.934;6.776;2023-10-09T05:16:11;16.30;39.90
4826;DHT22;2427;50.934;6.776;2023-10-09T05:18:54;16.40;1.00
4826;DHT22;2427;50.934;6.776;2023-10-09T05:21:28;16.50;1.00
4826;DHT22;2427;50.934;6.776;2023-10-09T05:24:03;16.50;1.00
4826;DHT22;2427;50.934;6.776;2023-10-09T05:26:45;16.50;1.00
4826;DHT22;2427;50.934;6.776;2023-10-09T05:29:24;16.50;1.00
4826;DHT22;2427;50.934;6.776;2023-10-09T05:34:46;16.50;1.00
4826;DHT22;2427;50.934;6.776;2023-10-09T05:37:31;16.50;1.00
4826;DHT22;2427;50.934;6.776;2023-10-09T05:40:08;16.50;1.00
4826;DHT22;2427;50.934;6.776;2023-10-09T05:42:44;16.50;1.00
4826;DHT22;2427;50.934;6.776;2023-10-09T05:45:16;16.50;1.00
4826;DHT22;2427;50.934;6.776;2023-10-09T05:48:00;16.50;1.00
4826;DHT22;2427;50.934;6.776;2023-10-09T05:50:29;16.50;1.00
4826;DHT22;2427;50.934;6.776;2023-10-09T05:52:56;16.50;1.00
4826;DHT22;2427;50.934;6.776;2023-10-09T05:55:25;16.60;1.00
4826;DHT22;2427;50.934;6.776;2023-10-09T05:58:10;16.60;99.90
4826;DHT22;2427;50.934;6.776;2023-10-09T06:00:51;16.60;99.90
4826;DHT22;2427;50.934;6.776;2023-10-09T06:03:32;16.60;99.90
4826;DHT22;2427;50.934;6.776;2023-10-09T06:06:20;16.70;99.90
4826;DHT22;2427;50.934;6.776;2023-10-09T06:09:13;16.60;99.90
4826;DHT22;2427;50.934;6.776;2023-10-09T06:11:46;16.70;99.90
4826;DHT22;2427;50.934;6.776;2023-10-09T06:14:18;16.70;99.90
4826;DHT22;2427;50.934;6.776;2023-10-09T06:16:53;16.70;99.90
4826;DHT22;2427;50.934;6.776;2023-10-09T06:19:22;16.70;99.90
4826;DHT22;2427;50.934;6.776;2023-10-09T06:21:48;16.70;99.90
4826;DHT22;2427;50.934;6.776;2023-10-09T06:24:30;16.70;99.90
4826;DHT22;2427;50.934;6.776;2023-10-09T06:26:59;16.70;99.90
4826;DHT22;2427;50.934;6.776;2023-10-09T06:29:25;16.70;99.90
4826;DHT22;2427;50.934;6.776;2023-10-09T06:32:10;16.70;99.90
4826;DHT22;2427;50.934;6.776;2023-10-09T06:34:56;16.70;99.90
4826;DHT22;2427;50.934;6.776;2023-10-09T06:37:40;16.70;99.90
4826;DHT22;2427;50.934;6.776;2023-10-09T06:40:26;16.80;99.90
4826;DHT22;2427;50.934;6.776;2023-10-09T06:43:10;16.70;99.90
4826;DHT22;2427;50.934;6.776;2023-10-09T06:45:42;16.80;99.90
4826;DHT22;2427;50.934;6.776;2023-10-09T06:48:12;16.80;99.90
4826;DHT22;2427;50.934;6.776;2023-10-09T06:50:57;16.90;99.90
4826;DHT22;2427;50.934;6.776;2023-10-09T06:53:45;16.90;99.90
4826;DHT22;2427;50.934;6.776;2023-10-09T06:56:23;16.90;99.90
4826;DHT22;2427;50.934;6.776;2023-10-09T06:59:00;16.90;1.00
4826;DHT22;2427;50.934;6.776;2023-10-09T07:01:30;17.00;1.00
4826;DHT22;2427;50.934;6.776;2023-10-09T07:04:08;17.00;1.00
4826;DHT22;2427;50.934;6.776;2023-10-09T07:06:53;17.10;1.00
4826;DHT22;2427;50.934;6.776;2023-10-09T07:09:22;17.10;1.00
4826;DHT22;2427;50.934;6.776;2023-10-09T07:11:49;17.10;1.00
4826;DHT22;2427;50.934;6.776;2023-10-09T07:14:20;17.10;1.00
4826;DHT22;2427;50.934;6.776;2023-10-09T07:17:02;17.20;1.00
4826;DHT22;2427;50.934;6.776;2023-10-09T07:19:42;17.20;1.00
4826;DHT22;2427;50.934;6.776;2023-10-09T07:22:09;17.30;1.00
4826;DHT22;2427;50.934;6.776;2023-10-09T07:24:51;17.30;1.00
4826;DHT22;2427;50.934;6.776;2023-10-09T07:27:28;17.30;1.00
4826;DHT22;2427;50.934;6.776;2023-10-09T07:30:10;17.40;1.00
4826;DHT22;2427;50.934;6.776;2023-10-09T07:35:41;17.50;1.00
4826;DHT22;2427;50.934;6.776;2023-10-09T07:38:11;17.60;1.00
4826;DHT22;2427;50.934;6.776;2023-10-09T07:40:43;17.70;1.00
4826;DHT22;2427;50.934;6.776;2023-10-09T07:43:25;17.70;1.00
4826;DHT22;2427;50.934;6.776;2023-10-09T07:46:10;17.70;99.90
4826;DHT22;2427;50.934;6.776;2023-10-09T07:49:04;17.70;99.90
4826;DHT22;2427;50.934;6.776;2023-10-09T07:51:40;17.70;99.90
4826;DHT22;2427;50.934;6.776;2023-10-09T07:54:09;17.70;99.90
4826;DHT22;2427;50.934;6.776;2023-10-09T07:56:40;17.80;99.90
4826;DHT22;2427;50.934;6.776;2023-10-09T07:59:18;17.80;99.90
4826;DHT22;2427;50.934;6.776;2023-10-09T08:01:46;17.80;75.60
4826;DHT22;2427;50.934;6.776;2023-10-09T08:04:26;17.80;68.70
4826;DHT22;2427;50.934;6.776;2023-10-09T08:07:09;17.80;24.90
4826;DHT22;2427;50.934;6.776;2023-10-09T08:09:35;17.80;1.00
4826;DHT22;2427;50.934;6.776;2023-10-09T08:12:14;17.90;1.00
4826;DHT22;2427;50.934;6.776;2023-10-09T08:15:04;17.90;1.00
4826;DHT22;2427;50.934;6.776;2023-10-09T08:17:46;18.00;1.00
4826;DHT22;2427;50.934;6.776;2023-10-09T08:20:36;18.00;1.00
4826;DHT22;2427;50.934;6.776;2023-10-09T08:23:21;18.00;1.00
4826;DHT22;2427;50.934;6.776;2023-10-09T08:26:04;17.90;1.00
4826;DHT22;2427;50.934;6.776;2023-10-09T08:28:40;17.90;1.00
4826;DHT22;2427;50.934;6.776;2023-10-09T08:31:17;17.90;1.00
4826;DHT22;2427;50.934;6.776;2023-10-09T08:34:11;17.90;1.00
4826;DHT22;2427;50.934;6.776;2023-10-09T08:36:49;17.90;1.00
4826;DHT22;2427;50.934;6.776;2023-10-09T08:39:19;18.00;1.00
4826;DHT22;2427;50.934;6.776;2023-10-09T08:41:54;18.00;1.00
4826;DHT22;2427;50.934;6.776;2023-10-09T08:44:27;18.00;1.00
4826;DHT22;2427;50.934;6.776;2023-10-09T08:46:55;18.10;1.00
4826;DHT22;2427;50.934;6.776;2023-10-09T08:49:23;18.10;1.00
4826;DHT22;2427;50.934;6.776;2023-10-09T08:51:49;18.10;1.00
4826;DHT22;2427;50.934;6.776;2023-10-09T08:54:18;18.20;1.00
4826;DHT22;2427;50.934;6.776;2023-10-09T08:56:45;18.30;1.00
4826;DHT22;2427;50.934;6.776;2023-10-09T08:59:18;18.40;1.00
4826;DHT22;2427;50.934;6.776;2023-10-09T09:01:48;18.40;1.00
4826;DHT22;2427;50.934;6.776;2023-10-09T09:04:53;18.50;1.00
4826;DHT22;2427;50.934;6.776;2023-10-09T09:07:29;18.60;1.00
4826;DHT22;2427;50.934;6.776;2023-10-09T09:10:00;18.70;1.00
4826;DHT22;2427;50.934;6.776;2023-10-09T09:12:43;18.80;1.00
4826;DHT22;2427;50.934;6.776;2023-10-09T09:15:16;18.80;1.00
4826;DHT22;2427;50.934;6.776;2023-10-09T09:17:46;18.80;1.00
4826;DHT22;2427;50.934;6.776;2023-10-09T09:20:23;18.80;1.00
4826;DHT22;2427;50.934;6.776;2023-10-09T09:22:53;18.80;1.00
4826;DHT22;2427;50.934;6.776;2023-10-09T09:25:23;18.80;1.00
4826;DHT22;2427;50.934;6.776;2023-10-09T09:27:56;18.90;1.00
4826;DHT22;2427;50.934;6.776;2023-10-09T09:30:28;18.90;1.00
4826;DHT22;2427;50.934;6.776;2023-10-09T09:33:15;19.00;1.00
4826;DHT22;2427;50.934;6.776;2023-10-09T09:36:14;19.20;1.00
4826;DHT22;2427;50.934;6.776;2023-10-09T09:38:39;19.30;1.00
4826;DHT22;2427;50.934;6.776;2023-10-09T09:41:13;19.50;1.00
4826;DHT22;2427;50.934;6.776;2023-10-09T09:43:52;19.60;1.00
4826;DHT22;2427;50.934;6.776;2023-10-09T09:46:18;19.70;1.00
4826;DHT22;2427;50.934;6.776;2023-10-09T09:48:44;19.60;1.00
4826;DHT22;2427;50.934;6.776;2023-10-09T09:51:13;19.70;1.00
4826;DHT22;2427;50.934;6.776;2023-10-09T09:53:42;19.90;99.90
4826;DHT22;2427;50.934;6.776;2023-10-09T09:56:14;19.90;99.90
4826;DHT22;2427;50.934;6.776;2023-10-09T09:58:46;20.00;99.90
4826;DHT22;2427;50.934;6.776;2023-10-09T10:01:19;20.10;99.90
4826;DHT22;2427;50.934;6.776;2023-10-09T10:04:01;20.20;99.90
4826;DHT22;2427;50.934;6.776;2023-10-09T10:06:31;20.40;99.90
4826;DHT22;2427;50.934;6.776;2023-10-09T10:08:58;20.40;99.90
4826;DHT22;2427;50.934;6.776;2023-10-09T10:11:43;20.50;99.90
4826;DHT22;2427;50.934;6.776;2023-10-09T10:14:14;20.70;99.90
4826;DHT22;2427;50.934;6.776;2023-10-09T10:17:04;20.90;99.90
4826;DHT22;2427;50.934;6.776;2023-10-09T10:22:26;21.00;99.90
4826;DHT22;2427;50.934;6.776;2023-10-09T10:24:53;21.00;99.90
4826;DHT22;2427;50.934;6.776;2023-10-09T10:27:20;21.10;99.90
4826;DHT22;2427;50.934;6.776;2023-10-09T10:35:18;21.50;99.90
4826;DHT22;2427;50.934;6.776;2023-10-09T10:37:46;21.50;99.90
4826;DHT22;2427;50.934;6.776;2023-10-09T10:40:27;21.70;99.90
4826;DHT22;2427;50.934;6.776;2023-10-09T10:43:28;21.80;99.90
4826;DHT22;2427;50.934;6.776;2023-10-09T10:46:12;21.80;99.90
4826;DHT22;2427;50.934;6.776;2023-10-09T10:48:43;21.90;99.90
4826;DHT22;2427;50.934;6.776;2023-10-09T10:51:13;22.00;99.90
4826;DHT22;2427;50.934;6.776;2023-10-09T10:53:51;22.00;99.90
4826;DHT22;2427;50.934;6.776;2023-10-09T10:56:18;22.00;99.90
4826;DHT22;2427;50.934;6.776;2023-10-09T10:58:54;22.00;99.90
4826;DHT22;2427;50.934;6.776;2023-10-09T11:01:35;22.10;99.90
4826;DHT22;2427;50.934;6.776;2023-10-09T11:04:21;22.20;99.90
4826;DHT22;2427;50.934;6.776;2023-10-09T11:06:53;22.30;99.90
4826;DHT22;2427;50.934;6.776;2023-10-09T11:09:25;22.40;99.90
4826;DHT22;2427;50.934;6.776;2023-10-09T11:12:05;22.40;99.90
4826;DHT22;2427;50.934;6.776;2023-10-09T11:14:48;22.50;99.90
4826;DHT22;2427;50.934;6.776;2023-10-09T11:17:36;22.60;99.90
4826;DHT22;2427;50.934;6.776;2023-10-09T11:20:05;22.70;99.90
4826;DHT22;2427;50.934;6.776;2023-10-09T11:22:52;22.80;99.90
4826;DHT22;2427;50.934;6.776;2023-10-09T11:25:37;22.90;99.90
4826;DHT22;2427;50.934;6.776;2023-10-09T11:28:17;23.00;99.90
4826;DHT22;2427;50.934;6.776;2023-10-09T11:31:10;23.10;99.90
4826;DHT22;2427;50.934;6.776;2023-10-09T11:33:49;23.10;99.90
4826;DHT22;2427;50.934;6.776;2023-10-09T11:36:17;23.20;99.90
4826;DHT22;2427;50.934;6.776;2023-10-09T11:38:47;23.10;99.90
4826;DHT22;2427;50.934;6.776;2023-10-09T11:41:15;23.20;99.90
4826;DHT22;2427;50.934;6.776;2023-10-09T11:43:52;23.10;99.90
4826;DHT22;2427;50.934;6.776;2023-10-09T11:46:18;23.00;99.90
4826;DHT22;2427;50.934;6.776;2023-10-09T11:49:07;23.00;99.90
4826;DHT22;2427;50.934;6.776;2023-10-09T11:51:46;23.00;99.90
4826;DHT22;2427;50.934;6.776;2023-10-09T11:54:49;23.00;99.90
4826;DHT22;2427;50.934;6.776;2023-10-09T11:57:15;23.00;99.90
4826;DHT22;2427;50.934;6.776;2023-10-09T11:59:42;23.00;99.90
4826;DHT22;2427;50.934;6.776;2023-10-09T12:02:09;23.00;99.90
4826;DHT22;2427;50.934;6.776;2023-10-09T12:04:38;23.10;99.90
4826;DHT22;2427;50.934;6.776;2023-10-09T12:07:10;23.10;99.90
4826;DHT22;2427;50.934;6.776;2023-10-09T12:09:39;23.00;99.90
4826;DHT22;2427;50.934;6.776;2023-10-09T12:12:07;23.00;99.90
4826;DHT22;2427;50.934;6.776;2023-10-09T12:14:34;23.10;99.90
4826;DHT22;2427;50.934;6.776;2023-10-09T12:17:01;23.30;99.90
4826;DHT22;2427;50.934;6.776;2023-10-09T12:19:39;23.40;99.90
4826;DHT22;2427;50.934;6.776;2023-10-09T12:22:08;23.40;99.90
4826;DHT22;2427;50.934;6.776;2023-10-09T12:24:41;23.40;99.90
4826;DHT22;2427;50.934;6.776;2023-10-09T12:27:09;23.20;99.90
4826;DHT22;2427;50.934;6.776;2023-10-09T12:29:37;23.00;99.90
4826;DHT22;2427;50.934;6.776;2023-10-09T12:32:02;22.80;99.90
4826;DHT22;2427;50.934;6.776;2023-10-09T12:34:29;22.70;99.90
4826;DHT22;2427;50.934;6.776;2023-10-09T12:36:57;22.70;99.90
4826;DHT22;2427;50.934;6.776;2023-10-09T12:39:27;22.80;99.90
4826;DHT22;2427;50.934;6.776;2023-10-09T12:41:58;22.80;99.90
4826;DHT22;2427;50.934;6.776;2023-10-09T12:44:35;22.80;99.90
4826;DHT22;2427;50.934;6.776;2023-10-09T12:47:05;22.80;99.90
4826;DHT22;2427;50.934;6.776;2023-10-09T12:49:31;22.60;99.90
4826;DHT22;2427;50.934;6.776;2023-10-09T12:51:56;22.70;99.90
4826;DHT22;2427;50.934;6.776;2023-10-09T12:54:24;22.70;99.90
4826;DHT22;2427;50.934;6.776;2023-10-09T12:56:52;22.70;99.90
4826;DHT22;2427;50.934;6.776;2023-10-09T12:59:18;22.70;99.90
4826;DHT22;2427;50.934;6.776;2023-10-09T13:01:45;22.70;99.90
4826;DHT22;2427;50.934;6.776;2023-10-09T13:04:15;22.70;99.90
4826;DHT22;2427;50.934;6.776;2023-10-09T13:06:45;22.60;99.90
4826;DHT22;2427;50.934;6.776;2023-10-09T13:09:15;22.40;99.90
4826;DHT22;2427;50.934;6.776;2023-10-09T13:11:41;22.40;99.90
4826;DHT22;2427;50.934;6.776;2023-10-09T13:14:09;22.30;99.90
4826;DHT22;2427;50.934;6.776;2023-10-09T13:16:43;22.20;99.90
4826;DHT22;2427;50.934;6.776;2023-10-09T13:19:08;22.10;99.90
4826;DHT22;2427;50.934;6.776;2023-10-09T13:21:37;22.20;99.90
4826;DHT22;2427;50.934;6.776;2023-10-09T13:24:06;22.00;99.90
4826;DHT22;2427;50.934;6.776;2023-10-09T13:26:38;22.10;99.90
4826;DHT22;2427;50.934;6.776;2023-10-09T13:29:04;22.20;99.90
4826;DHT22;2427;50.934;6.776;2023-10-09T13:31:34;22.10;99.90
4826;DHT22;2427;50.934;6.776;2023-10-09T13:34:04;22.10;99.90
4826;DHT22;2427;50.934;6.776;2023-10-09T13:36:32;22.20;99.90
4826;DHT22;2427;50.934;6.776;2023-10-09T13:39:08;22.30;99.90
4826;DHT22;2427;50.934;6.776;2023-10-09T13:41:59;22.40;99.90
4826;DHT22;2427;50.934;6.776;2023-10-09T13:44:29;22.50;99.90
4826;DHT22;2427;50.934;6.776;2023-10-09T13:46:56;22.60;99.90
4826;DHT22;2427;50.934;6.776;2023-10-09T13:49:21;22.80;99.90
4826;DHT22;2427;50.934;6.776;2023-10-09T13:51:49;23.00;99.90
4826;DHT22;2427;50.934;6.776;2023-10-09T13:54:16;23.10;99.90
4826;DHT22;2427;50.934;6.776;2023-10-09T13:57:01;23.20;99.90
4826;DHT22;2427;50.934;6.776;2023-10-09T13:59:30;23.40;99.90
4826;DHT22;2427;50.934;6.776;2023-10-09T14:01:56;23.80;99.90
4826;DHT22;2427;50.934;6.776;2023-10-09T14:04:23;24.10;99.90
4826;DHT22;2427;50.934;6.776;2023-10-09T14:06:49;24.30;99.90
4826;DHT22;2427;50.934;6.776;2023-10-09T14:09:22;24.40;99.90
4826;DHT22;2427;50.934;6.776;2023-10-09T14:11:57;24.60;99.90
4826;DHT22;2427;50.934;6.776;2023-10-09T14:14:39;24.70;99.90
4826;DHT22;2427;50.934;6.776;2023-10-09T14:17:11;25.10;99.90
4826;DHT22;2427;50.934;6.776;2023-10-09T14:19:41;25.70;99.90
4826;DHT22;2427;50.934;6.776;2023-10-09T14:22:12;26.20;99.90
4826;DHT22;2427;50.934;6.776;2023-10-09T14:24:41;26.60;99.90
4826;DHT22;2427;50.934;6.776;2023-10-09T14:27:13;26.90;99.90
4826;DHT22;2427;50.934;6.776;2023-10-09T14:29:45;26.90;99.90
4826;DHT22;2427;50.934;6.776;2023-10-09T14:32:11;27.50;99.90
4826;DHT22;2427;50.934;6.776;2023-10-09T14:34:41;27.50;99.90
4826;DHT22;2427;50.934;6.776;2023-10-09T14:37:18;27.30;99.90
4826;DHT22;2427;50.934;6.776;2023-10-09T14:39:48;27.00;99.90
4826;DHT22;2427;50.934;6.776;2023-10-09T14:42:19;26.80;99.90
4826;DHT22;2427;50.934;6.776;2023-10-09T14:44:46;26.50;99.90
4826;DHT22;2427;50.934;6.776;2023-10-09T14:47:12;26.10;99.90
4826;DHT22;2427;50.934;6.776;2023-10-09T14:49:39;25.60;99.90
4826;DHT22;2427;50.934;6.776;2023-10-09T14:52:12;25.40;99.90
4826;DHT22;2427;50.934;6.776;2023-10-09T14:54:44;24.80;99.90
4826;DHT22;2427;50.934;6.776;2023-10-09T14:57:11;24.20;99.90
4826;DHT22;2427;50.934;6.776;2023-10-09T14:59:37;24.10;99.90
4826;DHT22;2427;50.934;6.776;2023-10-09T15:02:03;23.90;99.90
4826;DHT22;2427;50.934;6.776;2023-10-09T15:04:33;23.50;99.90
4826;DHT22;2427;50.934;6.776;2023-10-09T15:07:02;23.40;99.90
4826;DHT22;2427;50.934;6.776;2023-10-09T15:09:32;23.20;99.90
4826;DHT22;2427;50.934;6.776;2023-10-09T15:12:00;22.90;99.90
4826;DHT22;2427;50.934;6.776;2023-10-09T15:14:25;22.70;99.90
4826;DHT22;2427;50.934;6.776;2023-10-09T15:16:51;22.60;99.90
4826;DHT22;2427;50.934;6.776;2023-10-09T15:19:16;22.40;99.90
4826;DHT22;2427;50.934;6.776;2023-10-09T15:21:43;22.20;99.90
4826;DHT22;2427;50.934;6.776;2023-10-09T15:24:16;22.20;99.90
4826;DHT22;2427;50.934;6.776;2023-10-09T15:26:43;22.10;99.90
4826;DHT22;2427;50.934;6.776;2023-10-09T15:29:09;21.90;99.90
4826;DHT22;2427;50.934;6.776;2023-10-09T15:31:38;21.80;99.90
4826;DHT22;2427;50.934;6.776;2023-10-09T15:34:05;21.60;99.90
4826;DHT22;2427;50.934;6.776;2023-10-09T15:36:35;21.40;99.90
4826;DHT22;2427;50.934;6.776;2023-10-09T15:39:01;21.30;99.90
4826;DHT22;2427;50.934;6.776;2023-10-09T15:41:28;21.40;99.90
4826;DHT22;2427;50.934;6.776;2023-10-09T15:43:57;21.50;99.90
4826;DHT22;2427;50.934;6.776;2023-10-09T15:46:24;21.50;99.90
4826;DHT22;2427;50.934;6.776;2023-10-09T15:48:51;21.50;99.90
4826;DHT22;2427;50.934;6.776;2023-10-09T15:51:19;21.40;99.90
4826;DHT22;2427;50.934;6.776;2023-10-09T15:53:45;21.30;99.90
4826;DHT22;2427;50.934;6.776;2023-10-09T15:56:11;21.20;99.90
4826;DHT22;2427;50.934;6.776;2023-10-09T15:58:41;21.10;99.90
4826;DHT22;2427;50.934;6.776;2023-10-09T16:01:17;20.90;99.90
4826;DHT22;2427;50.934;6.776;2023-10-09T16:03:47;20.80;99.90
4826;DHT22;2427;50.934;6.776;2023-10-09T16:06:17;20.70;99.90
4826;DHT22;2427;50.934;6.776;2023-10-09T16:08:44;20.60;99.90
4826;DHT22;2427;50.934;6.776;2023-10-09T16:11:19;20.50;99.90
4826;DHT22;2427;50.934;6.776;2023-10-09T16:13:57;20.50;99.90
4826;DHT22;2427;50.934;6.776;2023-10-09T16:16:30;20.40;99.90
4826;DHT22;2427;50.934;6.776;2023-10-09T16:18:56;20.30;99.90
4826;DHT22;2427;50.934;6.776;2023-10-09T16:21:26;20.30;99.90
4826;DHT22;2427;50.934;6.776;2023-10-09T16:23:53;20.20;99.90
4826;DHT22;2427;50.934;6.776;2023-10-09T16:26:24;20.20;99.90
4826;DHT22;2427;50.934;6.776;2023-10-09T16:28:50;20.10;99.90
4826;DHT22;2427;50.934;6.776;2023-10-09T16:31:17;20.10;99.90
4826;DHT22;2427;50.934;6.776;2023-10-09T16:33:45;20.00;99.90
4826;DHT22;2427;50.934;6.776;2023-10-09T16:36:10;19.90;99.90
4826;DHT22;2427;50.934;6.776;2023-10-09T16:38:36;19.90;99.90
4826;DHT22;2427;50.934;6.776;2023-10-09T16:41:05;19.80;99.90
4826;DHT22;2427;50.934;6.776;2023-10-09T16:43:34;19.70;99.90
4826;DHT22;2427;50.934;6.776;2023-10-09T16:46:02;19.60;99.90
4826;DHT22;2427;50.934;6.776;2023-10-09T16:48:36;19.50;99.90
4826;DHT22;2427;50.934;6.776;2023-10-09T16:51:08;19.50;99.90
4826;DHT22;2427;50.934;6.776;2023-10-09T16:53:38;19.40;99.90
4826;DHT22;2427;50.934;6.776;2023-10-09T16:56:05;19.40;99.90
4826;DHT22;2427;50.934;6.776;2023-10-09T16:58:39;19.30;99.90
4826;DHT22;2427;50.934;6.776;2023-10-09T17:01:07;19.30;99.90
4826;DHT22;2427;50.934;6.776;2023-10-09T17:03:37;19.20;99.90
4826;DHT22;2427;50.934;6.776;2023-10-09T17:06:08;19.20;99.90
4826;DHT22;2427;50.934;6.776;2023-10-09T17:08:38;19.10;99.90